Time;durP1;ratioP1;P1;durP2;ratioP2;P2;SDS_P1;SDS_P2;PMS_P1;PMS_P2;Temp;Humidity;BMP_temperature;BMP_pressure;BME280_temperature;BME280_humidity;BME280_pressure;Samples;Min_cycle;Max_cycle;Signal;HPM_P1;HPM_P2
2022/06/22 00:02:35;;;;;;;5.77;1.73;;;17.50;94.00;;;;;;5074488;28;20200;-80
2022/06/22 00:05:05;;;;;;;6.43;1.60;;;17.50;94.10;;;;;;5072388;28;20187;-81
2022/06/22 00:07:42;;;;;;;5.67;1.80;;;17.50;94.60;;;;;;5073612;28;20644;-81
2022/06/22 00:10:28;;;;;;;4.33;1.80;;;17.40;94.80;;;;;;5073347;28;20165;-80
2022/06/22 00:12:55;;;;;;;3.90;2.00;;;17.40;95.10;;;;;;5073128;28;20203;-80
2022/06/22 00:15:31;;;;;;;4.63;1.70;;;17.50;94.40;;;;;;5072995;28;20176;-80
2022/06/22 00:17:57;;;;;;;4.53;1.50;;;17.60;93.80;;;;;;5072739;28;20633;-80
2022/06/22 00:20:29;;;;;;;6.70;1.80;;;17.60;93.80;;;;;;5073377;28;20314;-81
2022/06/22 00:22:56;;;;;;;4.83;1.70;;;17.60;94.30;;;;;;5072528;28;20208;-80
2022/06/22 00:25:33;;;;;;;4.40;1.50;;;17.40;94.00;;;;;;5073381;28;20223;-80
2022/06/22 00:28:28;;;;;;;6.37;1.60;;;17.40;94.30;;;;;;5072893;28;20172;-79
2022/06/22 00:31:03;;;;;;;9.47;1.97;;;17.40;94.80;;;;;;5072827;28;20176;-80
2022/06/22 00:33:29;;;;;;;7.63;2.40;;;17.40;94.80;;;;;;5072116;28;20230;-80
2022/06/22 00:36:01;;;;;;;5.27;2.00;;;17.50;94.80;;;;;;5072797;28;20220;-80
2022/06/22 00:38:30;;;;;;;6.07;1.97;;;17.40;95.10;;;;;;5073182;28;20259;-80
2022/06/22 00:41:04;;;;;;;8.17;1.77;;;17.40;95.30;;;;;;5071822;28;20164;-79
2022/06/22 00:43:35;;;;;;;3.90;1.87;;;17.40;95.40;;;;;;5071392;28;20196;-79
2022/06/22 00:46:02;;;;;;;6.97;1.70;;;17.30;95.40;;;;;;5071272;28;20655;-80
2022/06/22 00:48:34;;;;;;;4.00;1.80;;;17.30;95.30;;;;;;5072020;28;20183;-80
2022/06/22 00:51:04;;;;;;;8.40;2.47;;;17.30;95.30;;;;;;5072191;28;20641;-80
2022/06/22 00:53:35;;;;;;;5.97;1.90;;;17.20;95.40;;;;;;5072607;28;20196;-81
2022/06/22 00:56:20;;;;;;;5.70;2.07;;;17.10;95.60;;;;;;5073409;28;20193;-81
2022/06/22 00:59:11;;;;;;;6.73;2.07;;;17.20;95.10;;;;;;5073930;28;20612;-81
2022/06/22 01:02:03;;;;;;;3.50;1.83;;;17.20;95.70;;;;;;5069495;28;20179;-80
2022/06/22 01:04:42;;;;;;;5.80;2.53;;;17.00;95.80;;;;;;5074079;28;20175;-81
2022/06/22 01:07:29;;;;;;;4.03;2.20;;;17.00;95.70;;;;;;5074377;28;20202;-81
2022/06/22 01:10:02;;;;;;;7.83;2.23;;;17.00;95.70;;;;;;5073822;28;20177;-81
2022/06/22 01:12:43;;;;;;;8.30;2.63;;;16.80;95.70;;;;;;5073172;28;20199;-80
2022/06/22 01:15:24;;;;;;;6.33;2.27;;;17.00;95.50;;;;;;5073819;28;20183;-81
2022/06/22 01:18:01;;;;;;;9.00;2.40;;;16.90;95.80;;;;;;5073548;28;20644;-80
2022/06/22 01:20:31;;;;;;;5.73;2.50;;;16.90;95.90;;;;;;5072772;28;20172;-81
2022/06/22 01:23:11;;;;;;;4.30;2.30;;;16.80;96.20;;;;;;5072398;28;20197;-80
2022/06/22 01:25:43;;;;;;;4.43;2.30;;;16.90;95.90;;;;;;5072409;28;20671;-81
2022/06/22 01:28:13;;;;;;;8.23;2.60;;;16.80;96.10;;;;;;5072805;28;20175;-81
2022/06/22 01:30:49;;;;;;;4.00;2.53;;;16.80;96.20;;;;;;5072653;28;20539;-80
2022/06/22 01:33:18;;;;;;;6.37;2.50;;;16.70;96.60;;;;;;5072964;28;20276;-81
2022/06/22 01:35:44;;;;;;;9.70;3.00;;;16.70;96.80;;;;;;5072991;28;20204;-80
2022/06/22 01:38:26;;;;;;;3.23;2.40;;;16.60;97.20;;;;;;5072789;28;20187;-81
2022/06/22 01:41:02;;;;;;;6.37;2.70;;;16.60;97.10;;;;;;5072657;28;20613;-80
2022/06/22 01:43:37;;;;;;;6.77;2.77;;;16.50;97.30;;;;;;5072665;28;20191;-81
2022/06/22 01:46:46;;;;;;;10.47;3.27;;;16.50;97.60;;;;;;5075848;28;20176;-80
2022/06/22 01:49:21;;;;;;;6.70;2.80;;;16.50;97.90;;;;;;5075832;28;20184;-81
2022/06/22 01:52:07;;;;;;;6.03;3.00;;;16.50;97.80;;;;;;5076387;28;20200;-80
2022/06/22 01:54:39;;;;;;;6.83;2.90;;;16.40;98.30;;;;;;5076319;28;20181;-80
2022/06/22 01:57:18;;;;;;;4.90;2.70;;;16.40;98.40;;;;;;5076595;28;20201;-80
2022/06/22 01:59:49;;;;;;;6.10;3.00;;;16.30;99.00;;;;;;5076205;28;20222;-81
2022/06/22 02:02:24;;;;;;;7.53;2.93;;;16.30;99.30;;;;;;5075709;28;20234;-80
2022/06/22 02:05:12;;;;;;;8.10;3.27;;;16.40;99.10;;;;;;5075699;28;20172;-80
2022/06/22 02:07:49;;;;;;;7.50;3.00;;;16.20;99.80;;;;;;5075788;28;20184;-81
2022/06/22 02:10:27;;;;;;;5.33;3.30;;;16.20;99.90;;;;;;5075686;28;20644;-80
2022/06/22 02:13:17;;;;;;;8.13;3.20;;;16.30;99.90;;;;;;5075839;28;20201;-81
2022/06/22 02:16:42;;;;;;;9.47;3.70;;;16.10;99.90;;;;;;5076043;28;20168;-81
2022/06/22 02:19:10;;;;;;;6.03;3.90;;;16.00;99.90;;;;;;5031990;28;20209;-81
2022/06/22 02:21:50;;;;;;;10.50;4.07;;;15.90;99.90;;;;;;5076119;28;20260;-81
2022/06/22 02:24:33;;;;;;;7.03;4.10;;;15.90;99.90;;;;;;5076112;28;20561;-81
2022/06/22 02:27:04;;;;;;;10.20;4.00;;;15.90;99.90;;;;;;5076448;28;20253;-81
2022/06/22 02:29:34;;;;;;;11.50;4.50;;;16.00;99.90;;;;;;5077672;28;20166;-81
2022/06/22 02:32:05;;;;;;;8.27;3.80;;;15.80;99.90;;;;;;5076133;28;20826;-81
2022/06/22 02:34:33;;;;;;;8.00;4.20;;;15.90;99.90;;;;;;5076385;28;20636;-81
2022/06/22 02:37:01;;;;;;;8.50;4.43;;;15.80;99.90;;;;;;5076296;28;20668;-81
2022/06/22 02:39:29;;;;;;;7.40;3.83;;;15.70;99.90;;;;;;5076218;28;20244;-82
2022/06/22 02:44:45;;;;;;;8.90;4.20;;;15.60;99.90;;;;;;5077598;28;20572;-81
2022/06/22 02:47:39;;;;;;;9.93;4.77;;;15.80;99.90;;;;;;5075850;28;20237;-81
2022/06/22 02:50:31;;;;;;;8.77;4.63;;;15.70;99.90;;;;;;5070538;28;20189;-80
2022/06/22 02:53:01;;;;;;;8.67;4.60;;;15.70;99.90;;;;;;5075579;28;20201;-80
2022/06/22 02:55:32;;;;;;;7.03;4.57;;;15.30;99.90;;;;;;5075200;28;20173;-80
2022/06/22 02:58:00;;;;;;;11.97;4.93;;;15.20;99.90;;;;;;5075133;28;20184;-80
2022/06/22 03:00:38;;;;;;;14.07;4.73;;;15.00;99.90;;;;;;5075856;28;20545;-81
2022/06/22 03:03:08;;;;;;;7.90;4.80;;;15.10;99.90;;;;;;5074997;28;20194;-80
2022/06/22 03:05:34;;;;;;;10.47;5.10;;;15.10;99.90;;;;;;5075687;28;20168;-82
2022/06/22 03:08:02;;;;;;;13.40;5.13;;;15.00;99.90;;;;;;5075219;28;20175;-80
2022/06/22 03:10:45;;;;;;;11.13;5.50;;;15.00;99.90;;;;;;5075640;28;20176;-80
2022/06/22 03:13:13;;;;;;;15.63;6.10;;;15.00;99.90;;;;;;5058717;28;20191;-80
2022/06/22 03:15:39;;;;;;;7.90;5.30;;;15.10;99.90;;;;;;5074914;28;20259;-81
2022/06/22 03:18:08;;;;;;;7.60;5.00;;;15.00;99.90;;;;;;5074544;28;20199;-81
2022/06/22 03:20:50;;;;;;;8.87;5.10;;;14.90;99.90;;;;;;5075315;28;20582;-80
2022/06/22 03:23:54;;;;;;;11.07;5.27;;;14.90;99.90;;;;;;5075071;28;20602;-81
2022/06/22 03:26:24;;;;;;;10.57;5.57;;;14.60;99.90;;;;;;5075235;28;20191;-81
2022/06/22 03:29:13;;;;;;;11.53;5.87;;;14.70;99.90;;;;;;5076173;28;20499;-81
2022/06/22 03:31:48;;;;;;;9.53;5.30;;;14.70;99.90;;;;;;5074208;28;20176;-80
2022/06/22 03:34:24;;;;;;;9.30;5.50;;;14.70;99.90;;;;;;5074593;28;20171;-81
2022/06/22 03:37:22;;;;;;;10.77;5.40;;;14.80;99.90;;;;;;5074743;28;20192;-81
2022/06/22 03:39:52;;;;;;;6.53;4.90;;;14.70;99.90;;;;;;5077250;28;20868;-79
2022/06/22 03:42:24;;;;;;;9.23;5.50;;;14.60;99.90;;;;;;5080377;28;20200;-78
2022/06/22 03:44:58;;;;;;;10.20;5.27;;;14.60;99.90;;;;;;5078944;28;20167;-78
2022/06/22 03:47:39;;;;;;;14.87;5.30;;;14.50;99.90;;;;;;5079484;28;20172;-79
2022/06/22 03:50:13;;;;;;;9.80;5.00;;;14.60;99.90;;;;;;5079120;28;20186;-78
2022/06/22 03:52:52;;;;;;;12.27;5.10;;;14.50;99.90;;;;;;5079256;28;20200;-79
2022/06/22 03:55:22;;;;;;;7.60;5.13;;;14.60;99.90;;;;;;5078935;28;20524;-78
2022/06/22 03:57:51;;;;;;;16.43;5.33;;;14.50;99.90;;;;;;5079290;28;20204;-79
2022/06/22 04:00:19;;;;;;;7.57;5.00;;;14.60;99.90;;;;;;5078521;28;20169;-78
2022/06/22 04:02:45;;;;;;;12.27;5.00;;;14.60;99.90;;;;;;5077428;28;20254;-78
2022/06/22 04:05:20;;;;;;;15.97;5.20;;;14.60;99.90;;;;;;5078965;28;20177;-79
2022/06/22 04:07:47;;;;;;;10.87;5.00;;;14.50;99.90;;;;;;5079253;28;20176;-79
2022/06/22 04:10:40;;;;;;;11.20;4.97;;;14.70;99.90;;;;;;5078503;28;20197;-79
2022/06/22 04:13:15;;;;;;;10.00;5.00;;;14.70;99.90;;;;;;5077824;28;20234;-79
2022/06/22 04:15:55;;;;;;;10.27;5.30;;;14.70;99.90;;;;;;5078363;28;20186;-79
2022/06/22 04:18:30;;;;;;;14.70;5.27;;;14.80;99.90;;;;;;5076984;28;20271;-79
2022/06/22 04:21:07;;;;;;;10.33;4.60;;;14.90;99.90;;;;;;5078603;28;20624;-79
2022/06/22 04:23:49;;;;;;;6.03;4.57;;;14.90;99.90;;;;;;5079127;28;20199;-79
2022/06/22 04:26:24;;;;;;;11.60;4.37;;;15.00;99.90;;;;;;5079751;28;20215;-79
2022/06/22 04:28:54;;;;;;;7.27;4.00;;;15.10;99.90;;;;;;5079226;28;20609;-78
2022/06/22 04:31:29;;;;;;;7.40;3.80;;;15.50;99.90;;;;;;5079581;28;20216;-79
2022/06/22 04:34:30;;;;;;;10.13;3.87;;;15.60;99.90;;;;;;5078071;28;20195;-78
2022/06/22 04:36:58;;;;;;;8.03;3.53;;;16.00;99.90;;;;;;5077488;28;20197;-78
2022/06/22 04:39:32;;;;;;;6.30;3.30;;;16.50;99.90;;;;;;5077349;28;20645;-79
2022/06/22 04:42:00;;;;;;;6.63;2.83;;;16.70;99.90;;;;;;5073948;28;20241;-78
2022/06/22 04:44:32;;;;;;;9.13;2.77;;;17.00;99.90;;;;;;5076164;28;20536;-79
2022/06/22 04:47:28;;;;;;;8.57;3.40;;;17.10;99.90;;;;;;5075659;28;20226;-78
2022/06/22 04:49:58;;;;;;;5.65;2.90;;;17.30;99.90;;;;;;5074354;28;20184;-79
2022/06/22 04:52:33;;;;;;;7.13;2.78;;;17.40;99.90;;;;;;5076866;28;20188;-79
2022/06/22 04:55:03;;;;;;;8.70;2.63;;;17.60;99.90;;;;;;5077362;28;20251;-79
2022/06/22 04:57:36;;;;;;;4.13;2.25;;;17.70;99.90;;;;;;5076013;28;20571;-79
2022/06/22 05:00:11;;;;;;;4.22;2.53;;;17.90;99.90;;;;;;5075217;28;20177;-79
2022/06/22 05:02:40;;;;;;;8.10;2.50;;;18.30;99.90;;;;;;5075401;28;20196;-79
2022/06/22 05:05:15;;;;;;;5.88;2.38;;;18.30;99.90;;;;;;5074665;28;20274;-79
2022/06/22 05:07:51;;;;;;;5.47;2.50;;;18.00;99.90;;;;;;5076176;28;20774;-79
2022/06/22 05:10:38;;;;;;;7.90;2.67;;;18.00;99.90;;;;;;5075160;28;20167;-79
2022/06/22 05:13:23;;;;;;;3.85;2.15;;;18.20;99.90;;;;;;5074595;28;20196;-79
2022/06/22 05:15:53;;;;;;;5.03;2.28;;;18.10;99.70;;;;;;5079144;28;20180;-79
2022/06/22 05:18:26;;;;;;;5.75;2.55;;;18.20;99.10;;;;;;5076442;28;20168;-79
2022/06/22 05:21:14;;;;;;;7.80;2.33;;;18.70;98.60;;;;;;5074850;28;20176;-79
2022/06/22 05:23:44;;;;;;;7.05;2.13;;;18.50;98.90;;;;;;5075497;28;20192;-79
2022/06/22 05:26:11;;;;;;;6.20;2.30;;;18.80;98.10;;;;;;5074002;28;20184;-79
2022/06/22 05:28:47;;;;;;;7.68;2.20;;;18.80;97.90;;;;;;5074032;28;20735;-79
2022/06/22 05:31:15;;;;;;;5.63;2.25;;;18.80;97.90;;;;;;5074215;28;20641;-79
2022/06/22 05:33:47;;;;;;;2.47;2.28;;;18.70;96.70;;;;;;5075385;28;20681;-79
2022/06/22 05:36:16;;;;;;;5.60;2.25;;;19.00;97.70;;;;;;5073558;28;20699;-79
2022/06/22 05:38:48;;;;;;;9.10;2.70;;;19.00;96.00;;;;;;5073653;28;20168;-79
2022/06/22 05:41:20;;;;;;;13.45;2.90;;;19.20;96.10;;;;;;5078303;28;20153;-79
2022/06/22 05:43:47;;;;;;;7.80;2.00;;;19.50;96.10;;;;;;5081587;28;20184;-79
2022/06/22 05:46:14;;;;;;;5.32;2.22;;;19.50;95.70;;;;;;5083350;28;20179;-79
2022/06/22 05:48:50;;;;;;;5.20;2.05;;;19.80;95.30;;;;;;5083776;28;20263;-79
2022/06/22 05:51:34;;;;;;;5.55;2.60;;;20.00;94.30;;;;;;5082840;28;20176;-79
2022/06/22 05:54:11;;;;;;;7.18;2.03;;;20.00;94.30;;;;;;5084473;28;20172;-79
2022/06/22 05:56:51;;;;;;;4.68;2.00;;;20.10;94.00;;;;;;5083741;28;20236;-79
2022/06/22 05:59:30;;;;;;;5.25;2.05;;;20.40;93.40;;;;;;5083761;28;20658;-79
2022/06/22 06:02:19;;;;;;;3.67;1.80;;;20.30;92.80;;;;;;5082276;28;20280;-79
2022/06/22 06:05:05;;;;;;;4.25;2.05;;;20.80;92.50;;;;;;5083541;28;20173;-79
2022/06/22 06:07:48;;;;;;;4.97;2.05;;;21.20;92.60;;;;;;5082084;28;20165;-79
2022/06/22 06:10:20;;;;;;;2.33;1.88;;;21.40;92.00;;;;;;5084043;28;20587;-79
2022/06/22 06:12:55;;;;;;;4.72;1.70;;;21.10;91.80;;;;;;5081350;28;20189;-79
2022/06/22 06:15:21;;;;;;;3.92;1.60;;;21.50;91.70;;;;;;5082711;28;20172;-79
2022/06/22 06:17:54;;;;;;;4.22;1.73;;;21.80;91.30;;;;;;5083769;28;20698;-79
2022/06/22 06:20:22;;;;;;;4.40;1.90;;;21.60;90.90;;;;;;5083796;28;20176;-80
2022/06/22 06:22:54;;;;;;;5.35;1.50;;;22.00;90.50;;;;;;5085454;28;20211;-80
2022/06/22 06:28:25;;;;;;;5.32;1.80;;;21.90;90.10;;;;;;5080007;28;20184;-79
2022/06/22 06:30:55;;;;;;;6.47;1.75;;;22.50;89.30;;;;;;5075647;28;20179;-79
2022/06/22 06:33:31;;;;;;;3.38;1.50;;;22.40;89.40;;;;;;5083212;28;20189;-80
2022/06/22 06:36:09;;;;;;;8.25;1.77;;;22.50;87.90;;;;;;5081645;28;20246;-79
2022/06/22 06:38:44;;;;;;;4.63;1.60;;;22.80;87.10;;;;;;5081252;28;20172;-79
2022/06/22 06:41:25;;;;;;;17.23;1.70;;;22.90;85.70;;;;;;5078988;28;20177;-79
2022/06/22 06:43:56;;;;;;;2.67;1.58;;;23.30;86.80;;;;;;5081547;28;20758;-79
2022/06/22 06:46:45;;;;;;;7.00;1.50;;;23.40;85.90;;;;;;5081802;28;20180;-80
2022/06/22 06:49:29;;;;;;;6.53;1.45;;;22.90;85.20;;;;;;5081872;28;20172;-80
2022/06/22 06:52:22;;;;;;;6.60;1.60;;;23.40;85.70;;;;;;5080746;28;20199;-80
2022/06/22 06:55:40;;;;;;;3.67;1.60;;;23.60;84.10;;;;;;5081318;28;20169;-79
2022/06/22 06:58:12;;;;;;;3.60;1.50;;;23.20;85.30;;;;;;5081059;28;20188;-80
2022/06/22 07:00:39;;;;;;;4.30;1.50;;;23.20;82.20;;;;;;5080750;28;20172;-80
2022/06/22 07:03:36;;;;;;;1.98;1.50;;;22.80;82.90;;;;;;5079124;28;20287;-79
2022/06/22 07:06:03;;;;;;;3.47;1.55;;;23.40;84.30;;;;;;5078534;28;20165;-79
2022/06/22 07:08:34;;;;;;;1.85;1.35;;;24.30;84.10;;;;;;5080108;28;20544;-79
2022/06/22 07:11:18;;;;;;;2.90;1.58;;;24.30;81.60;;;;;;5081865;28;20586;-79
2022/06/22 07:13:52;;;;;;;7.07;1.60;;;23.60;81.20;;;;;;5078420;28;20287;-79
2022/06/22 07:16:24;;;;;;;3.83;1.52;;;23.80;82.70;;;;;;5079606;28;20196;-79
2022/06/22 07:19:02;;;;;;;5.82;1.40;;;23.80;81.40;;;;;;5078745;28;20260;-79
2022/06/22 07:21:46;;;;;;;3.42;1.33;;;23.50;80.90;;;;;;5075079;28;20168;-79
2022/06/22 07:24:34;;;;;;;2.45;1.45;;;24.00;79.80;;;;;;5075616;28;20169;-81
2022/06/22 07:27:45;;;;;;;5.22;1.50;;;24.70;82.00;;;;;;5076239;22;20304;-83
2022/06/22 07:30:20;;;;;;;9.95;1.90;;;25.00;78.60;;;;;;5013589;28;20179;-83
2022/06/22 07:33:17;;;;;;;3.58;1.27;;;24.90;79.20;;;;;;4991593;28;20190;-83
2022/06/22 07:36:01;;;;;;;5.72;1.60;;;25.00;79.60;;;;;;5017538;28;20197;-83
2022/06/22 07:38:49;;;;;;;4.10;1.48;;;25.30;77.40;;;;;;5034821;28;20174;-83
2022/06/22 07:41:18;;;;;;;7.03;1.63;;;25.00;78.90;;;;;;5058799;23;20228;-82
2022/06/22 07:43:54;;;;;;;11.10;1.65;;;25.20;78.20;;;;;;5053929;28;20204;-83
2022/06/22 07:46:43;;;;;;;5.38;1.70;;;25.20;78.50;;;;;;5054712;28;20158;-82
2022/06/22 07:49:18;;;;;;;6.30;1.50;;;25.80;77.70;;;;;;5054372;28;20173;-79
2022/06/22 07:51:54;;;;;;;3.50;1.30;;;25.30;76.50;;;;;;5056462;28;20197;-80
2022/06/22 07:54:28;;;;;;;2.67;1.50;;;24.50;79.10;;;;;;5055569;28;20185;-80
2022/06/22 07:57:12;;;;;;;7.78;2.17;;;25.80;77.30;;;;;;5055781;28;20200;-81
2022/06/22 07:59:41;;;;;;;3.30;1.65;;;25.80;76.20;;;;;;5056272;28;20215;-81
2022/06/22 08:02:15;;;;;;;7.78;1.42;;;25.20;75.70;;;;;;5055866;28;20205;-81
2022/06/22 08:04:59;;;;;;;6.82;1.70;;;25.80;76.30;;;;;;5056978;28;20170;-81
2022/06/22 08:07:37;;;;;;;6.72;1.50;;;25.20;76.10;;;;;;5055916;28;20185;-80
2022/06/22 08:10:25;;;;;;;5.43;1.65;;;26.40;77.20;;;;;;5056551;28;20169;-80
2022/06/22 08:13:13;;;;;;;4.90;1.90;;;26.20;76.80;;;;;;5055579;28;20188;-80
2022/06/22 08:15:57;;;;;;;5.53;1.75;;;26.80;75.40;;;;;;5057035;28;20173;-81
2022/06/22 08:18:23;;;;;;;8.80;1.45;;;26.10;77.30;;;;;;5056136;28;20154;-81
2022/06/22 08:20:52;;;;;;;4.90;1.70;;;26.40;75.80;;;;;;5055828;28;20659;-81
2022/06/22 08:23:22;;;;;;;6.00;1.85;;;25.90;75.90;;;;;;5054988;28;20196;-80
2022/06/22 08:25:50;;;;;;;3.20;1.48;;;26.40;75.00;;;;;;5055177;28;20172;-81
2022/06/22 08:28:19;;;;;;;6.53;1.75;;;26.30;74.90;;;;;;5055465;28;20217;-81
2022/06/22 08:30:47;;;;;;;6.22;1.90;;;26.50;75.20;;;;;;5055773;28;20204;-80
2022/06/22 08:33:17;;;;;;;5.65;1.70;;;26.40;75.30;;;;;;5055796;28;20212;-80
2022/06/22 08:35:51;;;;;;;2.85;1.55;;;25.90;75.80;;;;;;5056434;28;20169;-80
2022/06/22 08:38:31;;;;;;;4.40;2.00;;;26.00;75.00;;;;;;5056008;28;20193;-81
2022/06/22 08:41:23;;;;;;;7.28;1.55;;;25.10;76.20;;;;;;5055204;28;20193;-80
2022/06/22 08:44:11;;;;;;;4.28;1.45;;;25.10;75.60;;;;;;5051704;28;20196;-80
2022/06/22 08:46:49;;;;;;;4.20;1.50;;;25.40;77.00;;;;;;5055644;28;20181;-80
2022/06/22 08:49:39;;;;;;;3.45;1.60;;;25.50;74.60;;;;;;5054331;28;20168;-81
2022/06/22 08:52:27;;;;;;;4.07;1.73;;;24.70;76.60;;;;;;5054502;28;20270;-80
2022/06/22 08:54:56;;;;;;;7.25;1.67;;;24.60;76.60;;;;;;5052829;28;20181;-81
2022/06/22 08:57:46;;;;;;;4.88;1.63;;;24.90;77.80;;;;;;5054382;28;20204;-81
2022/06/22 09:00:24;;;;;;;3.25;1.70;;;24.30;77.90;;;;;;5054399;28;20581;-80
2022/06/22 09:03:12;;;;;;;2.47;1.63;;;24.80;77.90;;;;;;5053865;28;20446;-80
2022/06/22 09:06:05;;;;;;;4.95;1.60;;;25.30;76.50;;;;;;5054871;28;20169;-81
2022/06/22 09:08:45;;;;;;;3.92;1.80;;;25.10;77.90;;;;;;5054520;28;20243;-81
2022/06/22 09:11:30;;;;;;;5.00;2.10;;;25.10;76.30;;;;;;5054647;28;20558;-81
2022/06/22 09:14:07;;;;;;;5.13;1.60;;;24.80;77.50;;;;;;5055032;28;20169;-81
2022/06/22 09:16:58;;;;;;;6.28;1.67;;;24.90;77.40;;;;;;5054556;28;20228;-81
2022/06/22 09:19:33;;;;;;;5.32;1.60;;;24.90;77.00;;;;;;5054441;28;20169;-80
2022/06/22 09:22:01;;;;;;;7.22;1.88;;;24.70;78.10;;;;;;5053902;28;20197;-80
2022/06/22 09:25:05;;;;;;;7.55;1.50;;;25.00;76.80;;;;;;5054015;28;20227;-80
2022/06/22 09:27:43;;;;;;;4.05;1.50;;;25.40;75.60;;;;;;5066616;23;20270;-78
2022/06/22 09:30:30;;;;;;;4.47;1.70;;;25.10;77.50;;;;;;5055241;28;20173;-79
2022/06/22 09:33:11;;;;;;;3.17;1.60;;;25.70;75.10;;;;;;5054255;28;20683;-79
2022/06/22 09:35:59;;;;;;;8.32;1.63;;;26.00;75.50;;;;;;5054581;28;20174;-80
2022/06/22 09:39:02;;;;;;;3.55;1.58;;;26.00;76.30;;;;;;5054209;28;20181;-80
2022/06/22 09:41:51;;;;;;;3.70;1.60;;;26.10;76.10;;;;;;5053006;28;20260;-78
2022/06/22 09:44:35;;;;;;;4.35;1.50;;;26.10;75.60;;;;;;5053480;28;20607;-79
2022/06/22 09:47:26;;;;;;;6.25;1.55;;;26.10;76.00;;;;;;5052788;28;20169;-79
2022/06/22 09:50:06;;;;;;;7.45;2.00;;;26.60;77.30;;;;;;5052267;28;20169;-80
2022/06/22 09:52:50;;;;;;;6.50;1.58;;;27.20;72.80;;;;;;5052806;28;20272;-77
2022/06/22 09:58:34;;;;;;;9.68;1.60;;;27.40;74.40;;;;;;5052931;28;20209;-79
2022/06/22 10:01:38;;;;;;;6.15;1.45;;;27.00;73.60;;;;;;5051701;28;20169;-80
2022/06/22 10:04:12;;;;;;;4.25;1.70;;;26.70;70.30;;;;;;5052621;28;20513;-81
2022/06/22 10:07:08;;;;;;;10.38;1.80;;;26.30;71.20;;;;;;5054083;28;20168;-79
2022/06/22 10:09:44;;;;;;;8.25;1.63;;;26.40;73.00;;;;;;5056775;28;20177;-81
2022/06/22 10:12:39;;;;;;;8.40;1.73;;;26.80;74.60;;;;;;5057288;28;20251;-79
2022/06/22 10:15:37;;;;;;;5.65;1.65;;;27.60;74.30;;;;;;5053931;28;20657;-80
2022/06/22 10:18:29;;;;;;;5.05;1.80;;;27.70;74.10;;;;;;5023677;28;20220;-83
2022/06/22 10:20:58;;;;;;;3.72;1.50;;;27.80;72.50;;;;;;5045338;28;20187;-83
2022/06/22 10:23:59;;;;;;;2.72;1.95;;;28.90;70.70;;;;;;5055281;28;20204;-83
2022/06/22 10:27:15;;;;;;;5.75;1.50;;;28.70;70.10;;;;;;5044975;28;20662;-84
2022/06/22 10:30:04;;;;;;;6.65;1.60;;;28.00;72.60;;;;;;5034998;28;20185;-81
2022/06/22 10:32:48;;;;;;;4.38;1.55;;;28.80;71.20;;;;;;5034480;28;20202;-81
2022/06/22 10:35:14;;;;;;;6.40;1.52;;;28.10;71.00;;;;;;5037395;28;20166;-81
2022/06/22 10:37:48;;;;;;;9.30;2.47;;;28.00;72.10;;;;;;5036074;28;20432;-76
2022/06/22 10:46:35;;;;;;;3.03;1.65;;;28.80;69.00;;;;;;5039025;28;20176;-78
2022/06/22 10:49:39;;;;;;;5.32;1.60;;;29.10;69.30;;;;;;5030186;28;20188;-78
2022/06/22 10:52:05;;;;;;;9.73;1.92;;;28.40;67.20;;;;;;5004636;28;20197;-81
2022/06/22 10:54:49;;;;;;;7.18;1.90;;;28.10;69.20;;;;;;5037475;28;20248;-80
2022/06/22 10:57:34;;;;;;;3.53;1.60;;;28.70;68.90;;;;;;5036694;28;20229;-81
2022/06/22 11:00:54;;;;;;;4.18;1.60;;;28.50;67.90;;;;;;5035152;28;20277;-79
2022/06/22 11:03:26;;;;;;;8.82;1.30;;;28.10;67.50;;;;;;5034514;28;20194;-78
2022/06/22 11:06:10;;;;;;;6.78;1.58;;;28.30;65.80;;;;;;5036626;28;20568;-80
2022/06/22 11:09:10;;;;;;;3.47;1.63;;;27.90;66.10;;;;;;5038447;28;20216;-80
2022/06/22 11:11:48;;;;;;;5.10;1.40;;;29.00;65.80;;;;;;5036987;28;20208;-81
2022/06/22 11:14:27;;;;;;;9.20;1.70;;;29.70;66.80;;;;;;5037695;28;20537;-79
2022/06/22 11:17:20;;;;;;;3.92;1.40;;;29.30;63.60;;;;;;5035467;28;20186;-79
2022/06/22 11:20:23;;;;;;;15.02;2.08;;;29.10;62.20;;;;;;5034173;28;20255;-80
2022/06/22 11:22:54;;;;;;;5.05;1.20;;;28.60;61.90;;;;;;5036451;28;20201;-79
2022/06/22 11:31:47;;;;;;;1.73;1.05;;;29.20;62.10;;;;;;5037915;28;20209;-79
2022/06/22 11:34:37;;;;;;;8.25;1.40;;;29.50;62.50;;;;;;5037252;28;20668;-79
2022/06/22 11:37:11;;;;;;;3.50;1.40;;;28.90;62.20;;;;;;5038271;28;20577;-79
2022/06/22 11:40:02;;;;;;;4.22;1.27;;;29.70;62.30;;;;;;5038150;28;20173;-80
2022/06/22 11:42:53;;;;;;;6.38;1.45;;;30.00;61.80;;;;;;5036828;28;20194;-80
2022/06/22 11:48:49;;;;;;;6.75;1.70;;;29.20;63.50;;;;;;5038034;28;20173;-81
2022/06/22 11:51:43;;;;;;;14.98;1.60;;;29.00;62.50;;;;;;5036912;28;20185;-78
2022/06/22 11:54:27;;;;;;;3.58;1.52;;;28.90;65.10;;;;;;5035422;28;20196;-81
2022/06/22 11:56:56;;;;;;;2.65;1.13;;;28.70;62.50;;;;;;5036070;28;20193;-79
2022/06/22 11:59:40;;;;;;;6.38;1.65;;;28.60;63.60;;;;;;5036581;28;20665;-80
2022/06/22 12:02:48;;;;;;;5.95;1.50;;;28.10;63.50;;;;;;5036136;28;20186;-79
2022/06/22 12:05:29;;;;;;;3.88;1.33;;;29.20;64.70;;;;;;5037742;28;20638;-80
2022/06/22 12:08:32;;;;;;;7.97;1.77;;;29.80;64.80;;;;;;5036633;28;20665;-78
2022/06/22 12:11:13;;;;;;;7.68;1.67;;;30.20;64.80;;;;;;5036350;28;20519;-78
2022/06/22 12:17:23;;;;;;;1.50;1.25;;;29.20;65.00;;;;;;5036245;28;20286;-79
2022/06/22 12:20:01;;;;;;;6.95;1.98;;;28.60;64.10;;;;;;5036364;28;20181;-80
2022/06/22 12:22:40;;;;;;;8.88;1.65;;;28.30;65.10;;;;;;5036045;28;20205;-80
2022/06/22 12:26:01;;;;;;;2.13;1.50;;;28.60;65.50;;;;;;5034537;28;20326;-81
2022/06/22 12:28:39;;;;;;;5.85;1.70;;;28.10;65.40;;;;;;5014930;28;20202;-79
2022/06/22 12:31:05;;;;;;;3.60;1.70;;;28.00;64.80;;;;;;5036035;28;20219;-80
2022/06/22 12:33:42;;;;;;;4.82;1.42;;;27.80;64.70;;;;;;5036681;28;20197;-81
2022/06/22 12:36:32;;;;;;;7.97;1.42;;;27.50;65.50;;;;;;5034926;28;20174;-79
2022/06/22 12:39:11;;;;;;;4.70;1.80;;;28.10;66.20;;;;;;5037149;28;20696;-79
2022/06/22 12:41:49;;;;;;;10.00;1.60;;;27.70;65.10;;;;;;5035710;28;20177;-78
2022/06/22 12:44:56;;;;;;;1.58;1.35;;;27.70;64.90;;;;;;5035752;28;20669;-79
2022/06/22 12:47:50;;;;;;;2.83;1.58;;;27.50;63.90;;;;;;5029674;28;20197;-78
2022/06/22 12:50:38;;;;;;;31.80;2.88;;;26.90;62.90;;;;;;5036325;28;20184;-81
2022/06/22 12:53:08;;;;;;;16.00;2.22;;;27.30;62.80;;;;;;5034734;28;20201;-79
2022/06/22 12:55:42;;;;;;;7.43;1.70;;;26.40;64.40;;;;;;5034176;28;20181;-78
2022/06/22 12:58:26;;;;;;;1.70;1.30;;;26.60;64.10;;;;;;5035572;28;20205;-79
2022/06/22 13:00:56;;;;;;;3.22;1.50;;;27.10;64.50;;;;;;5035279;28;20194;-79
2022/06/22 13:03:27;;;;;;;5.30;1.58;;;27.00;63.60;;;;;;5034029;28;20578;-79
2022/06/22 13:05:52;;;;;;;4.20;1.70;;;27.10;66.00;;;;;;5034357;28;20536;-79
2022/06/22 13:08:22;;;;;;;9.48;1.90;;;26.90;64.20;;;;;;5035257;28;20250;-80
2022/06/22 13:10:52;;;;;;;3.95;1.60;;;26.60;63.20;;;;;;5035614;28;20177;-79
2022/06/22 13:13:26;;;;;;;3.50;1.50;;;27.20;64.20;;;;;;5035971;28;20685;-79
2022/06/22 13:16:04;;;;;;;5.55;1.42;;;26.80;61.90;;;;;;5032563;28;20180;-80
2022/06/22 13:19:09;;;;;;;5.90;1.42;;;26.60;63.00;;;;;;5034574;28;20169;-81
2022/06/22 13:21:55;;;;;;;4.53;1.70;;;26.30;62.40;;;;;;5033932;28;20209;-80
2022/06/22 13:24:27;;;;;;;3.65;1.20;;;26.70;63.70;;;;;;5034785;28;20178;-81
2022/06/22 13:27:14;;;;;;;8.73;1.50;;;27.00;60.40;;;;;;5034290;28;20200;-78
2022/06/22 13:30:03;;;;;;;3.20;1.33;;;26.90;61.30;;;;;;5033995;28;20181;-79
2022/06/22 13:32:32;;;;;;;3.90;1.40;;;26.40;59.80;;;;;;5036315;28;20255;-80
2022/06/22 13:35:08;;;;;;;2.63;1.30;;;26.90;60.50;;;;;;5035967;28;20174;-78
2022/06/22 13:37:34;;;;;;;4.70;1.40;;;27.00;60.10;;;;;;5034421;28;20205;-80
2022/06/22 13:40:29;;;;;;;3.80;1.58;;;27.20;58.90;;;;;;5033609;28;20232;-79
2022/06/22 13:43:03;;;;;;;3.65;1.23;;;26.30;59.00;;;;;;5038547;28;20211;-78
2022/06/22 13:45:41;;;;;;;6.75;1.50;;;26.80;59.40;;;;;;5038619;28;20173;-78
2022/06/22 13:48:28;;;;;;;2.92;1.20;;;27.00;58.20;;;;;;5037477;28;20177;-79
2022/06/22 13:51:13;;;;;;;1.38;1.02;;;26.80;59.40;;;;;;5037866;28;20201;-80
2022/06/22 13:54:02;;;;;;;2.70;1.10;;;27.00;58.10;;;;;;5041060;28;20193;-78
2022/06/22 13:57:01;;;;;;;8.88;1.70;;;26.50;59.60;;;;;;5039085;28;20295;-79
2022/06/22 13:59:48;;;;;;;7.72;1.65;;;26.80;61.90;;;;;;5038244;28;20154;-78
2022/06/22 14:02:50;;;;;;;5.95;1.40;;;26.80;60.80;;;;;;5036993;28;20236;-79
2022/06/22 14:05:15;;;;;;;2.08;1.33;;;26.50;59.10;;;;;;5037710;28;20176;-80
2022/06/22 14:07:55;;;;;;;1.40;1.20;;;26.20;58.80;;;;;;5038243;28;20174;-81
2022/06/22 14:10:37;;;;;;;6.53;1.50;;;25.90;58.70;;;;;;5036807;28;20173;-80
2022/06/22 14:13:28;;;;;;;8.88;1.60;;;26.30;59.60;;;;;;5036584;28;20282;-80
2022/06/22 14:16:15;;;;;;;5.90;1.70;;;26.20;60.30;;;;;;5036727;28;20546;-81
2022/06/22 14:18:45;;;;;;;3.40;1.40;;;26.10;61.30;;;;;;5040545;28;20592;-80